createdAt,value
2022-09-18T00:04:23.042Z,100.00
2022-09-18T00:09:45.722Z,100.00
2022-09-18T00:15:08.612Z,100.00
2022-09-18T00:20:31.242Z,100.00
2022-09-18T00:25:53.606Z,100.00
2022-09-18T00:31:22.752Z,100.00
2022-09-18T00:36:45.363Z,100.00
2022-09-18T00:42:07.664Z,100.00
2022-09-18T00:47:33.787Z,100.00
2022-09-18T00:53:02.681Z,100.00
2022-09-18T00:58:24.511Z,100.00
2022-09-18T01:03:46.742Z,100.00
2022-09-18T01:09:28.850Z,100.00
2022-09-18T01:15:10.541Z,100.00
2022-09-18T01:21:06.601Z,100.00
2022-09-18T01:27:01.201Z,100.00
2022-09-18T01:32:28.612Z,100.00
2022-09-18T01:38:19.842Z,100.00
2022-09-18T01:43:44.982Z,100.00
2022-09-18T01:49:21.461Z,100.00
2022-09-18T01:54:48.853Z,100.00
2022-09-18T02:00:13.183Z,100.00
2022-09-18T02:05:46.649Z,100.00
2022-09-18T02:11:14.164Z,100.00
2022-09-18T02:16:53.741Z,100.00
2022-09-18T02:22:20.832Z,100.00
2022-09-18T02:27:44.380Z,100.00
2022-09-18T02:33:33.883Z,100.00
2022-09-18T02:38:59.348Z,100.00
2022-09-18T02:44:48.427Z,100.00
2022-09-18T02:50:32.081Z,100.00
2022-09-18T02:56:04.073Z,100.00
2022-09-18T03:01:30.512Z,100.00
2022-09-18T03:06:53.819Z,100.00
2022-09-18T03:12:16.603Z,100.00
2022-09-18T03:17:47.230Z,100.00
2022-09-18T03:23:11.292Z,100.00
2022-09-18T04:29:45.507Z,100.00
2022-09-18T04:35:10.982Z,100.00
2022-09-18T04:40:33.805Z,100.00
2022-09-18T04:45:56.384Z,100.00
2022-09-18T04:51:18.801Z,100.00
2022-09-18T04:56:43.212Z,100.00
2022-09-18T05:02:05.809Z,100.00
2022-09-18T05:07:28.230Z,100.00
2022-09-18T05:12:51.959Z,100.00
2022-09-18T05:18:15.107Z,100.00
2022-09-18T05:23:39.392Z,100.00
2022-09-18T05:35:00.521Z,100.00
2022-09-18T05:40:32.597Z,100.00
2022-09-18T05:46:07.326Z,100.00
2022-09-18T05:51:39.747Z,100.00
2022-09-18T05:57:02.992Z,100.00
2022-09-18T06:02:36.650Z,100.00
2022-09-18T06:08:16.761Z,100.00
2022-09-18T06:14:12.073Z,100.00
2022-09-18T06:20:54.282Z,100.00
2022-09-18T06:26:38.047Z,100.00
2022-09-18T06:32:01.246Z,100.00
2022-09-18T06:37:23.362Z,100.00
2022-09-18T06:43:17.761Z,100.00
2022-09-18T06:48:59.735Z,100.00
2022-09-18T06:54:22.414Z,100.00
2022-09-18T06:59:44.833Z,96.95
2022-09-18T07:05:08.271Z,90.08
2022-09-18T07:10:36.254Z,91.25
2022-09-18T07:15:59.021Z,89.11
2022-09-18T07:21:21.791Z,86.30
2022-09-18T07:26:47.142Z,80.65
2022-09-18T07:32:19.061Z,81.20
2022-09-18T07:37:54.681Z,81.24
2022-09-18T07:43:32.971Z,78.91
2022-09-18T07:49:10.819Z,76.13
2022-09-18T07:54:43.811Z,76.29
2022-09-18T08:00:24.853Z,77.29
2022-09-18T08:06:09.464Z,75.44
2022-09-18T08:11:35.051Z,77.06
2022-09-18T08:17:32.532Z,78.48
2022-09-18T08:23:43.998Z,76.83
2022-09-18T08:29:20.754Z,77.38
2022-09-18T08:34:55.302Z,76.65
2022-09-18T08:40:22.025Z,78.46
2022-09-18T08:46:21.632Z,77.87
2022-09-18T08:51:55.004Z,77.17
2022-09-18T08:57:23.304Z,74.98
2022-09-18T09:03:25.743Z,71.58
2022-09-18T09:08:59.519Z,72.36
2022-09-18T09:14:56.118Z,71.13
2022-09-18T09:20:46.089Z,69.62
2022-09-18T09:26:23.601Z,71.69
2022-09-18T09:39:28.262Z,69.84
2022-09-18T09:45:32.921Z,71.34
2022-09-18T09:51:28.428Z,71.52
2022-09-18T09:56:54.303Z,70.84
2022-09-18T10:03:12.413Z,69.98
2022-09-18T10:09:23.174Z,71.21
2022-09-18T10:15:22.792Z,70.78
2022-09-18T10:21:04.599Z,70.07
2022-09-18T10:26:41.653Z,70.00
2022-09-18T10:32:05.602Z,70.39
2022-09-18T10:37:32.761Z,71.86
2022-09-18T10:43:03.161Z,73.04
2022-09-18T10:48:29.300Z,73.62
2022-09-18T10:54:18.831Z,73.24
2022-09-18T11:00:09.631Z,74.75
2022-09-18T11:05:37.942Z,73.69
2022-09-18T11:11:09.850Z,75.09
2022-09-18T11:16:38.847Z,75.32
2022-09-18T11:22:05.002Z,76.25
2022-09-18T11:27:49.483Z,76.88
2022-09-18T11:33:41.673Z,77.73
2022-09-18T11:46:19.715Z,79.96
2022-09-18T11:52:02.072Z,80.98
2022-09-18T11:58:15.379Z,81.36
2022-09-18T12:04:11.534Z,82.95
2022-09-18T12:09:41.803Z,84.15
2022-09-18T12:15:20.139Z,85.42
2022-09-18T12:20:52.574Z,86.60
2022-09-18T12:26:27.250Z,87.46
2022-09-18T12:32:13.556Z,89.46
2022-09-18T12:37:50.681Z,94.11
2022-09-18T12:43:33.938Z,99.79
2022-09-18T12:49:37.131Z,100.00
2022-09-18T12:55:08.737Z,100.00
2022-09-18T13:00:31.935Z,100.00
2022-09-18T13:06:34.179Z,100.00
2022-09-18T13:12:02.545Z,100.00
2022-09-18T13:17:39.332Z,100.00
2022-09-18T13:23:02.239Z,100.00
2022-09-18T13:28:26.486Z,100.00
2022-09-18T13:33:59.826Z,100.00
2022-09-18T13:39:27.988Z,100.00
2022-09-18T13:44:51.095Z,100.00
2022-09-18T13:50:19.195Z,100.00
2022-09-18T13:55:59.587Z,100.00
2022-09-18T14:01:43.523Z,100.00
2022-09-18T14:07:25.483Z,100.00
2022-09-18T14:13:22.490Z,100.00
2022-09-18T14:18:44.732Z,100.00
2022-09-18T14:24:40.317Z,100.00
2022-09-18T14:48:28.863Z,100.00
2022-09-18T14:53:54.184Z,100.00
2022-09-18T14:59:22.027Z,100.00
2022-09-18T15:04:46.169Z,100.00
2022-09-18T15:10:19.526Z,100.00
2022-09-18T15:15:56.780Z,100.00
2022-09-18T15:22:11.206Z,100.00
2022-09-18T15:27:45.665Z,100.00
2022-09-18T15:33:19.394Z,100.00
2022-09-18T15:38:45.653Z,100.00
2022-09-18T15:44:31.495Z,100.00
2022-09-18T15:49:53.963Z,100.00
2022-09-18T15:55:19.038Z,100.00
2022-09-18T16:00:41.758Z,100.00
2022-09-18T16:06:06.940Z,100.00
2022-09-18T16:11:47.241Z,100.00
2022-09-18T16:17:34.818Z,100.00
2022-09-18T16:23:20.637Z,100.00
2022-09-18T16:28:44.607Z,100.00
2022-09-18T16:34:23.967Z,100.00
2022-09-18T16:39:46.029Z,100.00
2022-09-18T16:45:08.557Z,100.00
2022-09-18T16:50:30.554Z,100.00
2022-09-18T16:55:59.186Z,100.00
2022-09-18T17:01:23.882Z,100.00
2022-09-18T17:06:45.926Z,100.00
2022-09-18T17:12:11.222Z,100.00
2022-09-18T17:17:39.492Z,100.00
2022-09-18T17:23:03.295Z,100.00
2022-09-18T17:28:41.126Z,100.00
2022-09-18T17:34:09.533Z,100.00
2022-09-18T17:39:32.015Z,100.00
2022-09-18T17:44:57.348Z,100.00
2022-09-18T17:50:23.855Z,100.00
2022-09-18T17:55:46.418Z,100.00
2022-09-18T18:01:19.798Z,100.00
2022-09-18T18:06:42.847Z,100.00
2022-09-18T18:12:06.423Z,100.00
2022-09-18T18:17:36.449Z,100.00
2022-09-18T18:22:58.649Z,100.00
2022-09-18T18:28:21.777Z,100.00
2022-09-18T18:33:44.915Z,100.00
2022-09-18T18:39:12.476Z,100.00
2022-09-18T18:44:35.068Z,100.00
2022-09-18T18:50:00.394Z,100.00
2022-09-18T18:55:22.675Z,100.00
2022-09-18T19:00:44.545Z,100.00
2022-09-18T19:06:06.869Z,100.00
2022-09-18T19:11:32.276Z,100.00
2022-09-18T19:16:55.415Z,100.00
2022-09-18T19:22:18.284Z,100.00
2022-09-18T19:27:42.893Z,100.00
2022-09-18T19:33:05.992Z,100.00
2022-09-18T19:38:33.306Z,100.00
2022-09-18T19:43:55.566Z,100.00
2022-09-18T19:49:20.806Z,100.00
2022-09-18T19:54:43.035Z,100.00
2022-09-18T20:00:09.316Z,100.00
2022-09-18T20:05:39.473Z,100.00
2022-09-18T20:11:02.103Z,100.00
2022-09-18T20:16:24.745Z,100.00
2022-09-18T20:21:46.856Z,100.00
2022-09-18T20:27:09.356Z,100.00
2022-09-18T20:32:31.985Z,100.00
2022-09-18T20:37:56.297Z,100.00
2022-09-18T20:43:21.492Z,100.00
2022-09-18T20:49:06.208Z,100.00
2022-09-18T20:54:28.549Z,100.00
2022-09-18T20:59:50.884Z,100.00
2022-09-18T21:05:19.009Z,100.00
2022-09-18T21:10:48.458Z,100.00
2022-09-18T21:16:12.172Z,100.00
2022-09-18T21:21:35.200Z,100.00
2022-09-18T21:26:57.479Z,100.00
2022-09-18T21:32:19.439Z,100.00
2022-09-18T21:37:43.065Z,100.00
2022-09-18T21:43:06.021Z,100.00
2022-09-18T21:48:27.932Z,100.00
2022-09-18T21:53:50.758Z,100.00
2022-09-18T21:59:13.381Z,100.00
2022-09-18T22:04:35.812Z,100.00
2022-09-18T22:09:58.862Z,100.00
2022-09-18T22:15:21.363Z,100.00
2022-09-18T22:20:44.081Z,100.00
2022-09-18T22:26:24.059Z,100.00
2022-09-18T22:31:47.761Z,100.00
2022-09-18T22:37:12.160Z,100.00
2022-09-18T22:42:34.644Z,100.00
2022-09-18T22:47:57.203Z,100.00
2022-09-18T22:53:19.423Z,100.00
2022-09-18T22:58:43.784Z,100.00
2022-09-18T23:04:06.764Z,100.00
2022-09-18T23:09:30.022Z,100.00
2022-09-18T23:14:55.773Z,100.00
2022-09-18T23:20:22.042Z,100.00
2022-09-18T23:25:47.013Z,100.00
2022-09-18T23:31:24.396Z,100.00
2022-09-18T23:36:48.563Z,100.00
2022-09-18T23:42:11.484Z,100.00
2022-09-18T23:47:34.702Z,100.00
2022-09-18T23:52:56.802Z,100.00
2022-09-18T23:58:19.342Z,100.00
